sensor_id;sensor_type;location;lat;lon;timestamp;temperature;humidity
66019;HTU21D;52787;51.084;5.816;2023-02-28T00:00:35;4.07;62.84
66019;HTU21D;52787;51.084;5.816;2023-02-28T00:03:02;4.07;62.84
66019;HTU21D;52787;51.084;5.816;2023-02-28T00:05:28;4.01;63.20
66019;HTU21D;52787;51.084;5.816;2023-02-28T00:07:54;3.90;63.68
66019;HTU21D;52787;51.084;5.816;2023-02-28T00:10:24;3.84;63.95
66019;HTU21D;52787;51.084;5.816;2023-02-28T00:12:53;3.79;64.14
66019;HTU21D;52787;51.084;5.816;2023-02-28T00:15:22;3.82;64.06
66019;HTU21D;52787;51.084;5.816;2023-02-28T00:17:49;3.80;64.14
66019;HTU21D;52787;51.084;5.816;2023-02-28T00:20:15;3.87;63.86
66019;HTU21D;52787;51.084;5.816;2023-02-28T00:22:44;3.91;63.60
66019;HTU21D;52787;51.084;5.816;2023-02-28T00:25:13;3.95;63.25
66019;HTU21D;52787;51.084;5.816;2023-02-28T00:27:41;3.95;63.27
66019;HTU21D;52787;51.084;5.816;2023-02-28T00:30:12;3.91;63.34
66019;HTU21D;52787;51.084;5.816;2023-02-28T00:32:42;3.91;63.24
66019;HTU21D;52787;51.084;5.816;2023-02-28T00:35:09;3.91;63.29
66019;HTU21D;52787;51.084;5.816;2023-02-28T00:37:36;3.84;63.62
66019;HTU21D;52787;51.084;5.816;2023-02-28T00:40:03;3.79;63.85
66019;HTU21D;52787;51.084;5.816;2023-02-28T00:42:31;3.71;64.38
66019;HTU21D;52787;51.084;5.816;2023-02-28T00:44:57;3.64;64.55
66019;HTU21D;52787;51.084;5.816;2023-02-28T00:47:23;3.58;64.85
66019;HTU21D;52787;51.084;5.816;2023-02-28T00:49:48;3.58;64.76
66019;HTU21D;52787;51.084;5.816;2023-02-28T00:52:14;3.59;64.90
66019;HTU21D;52787;51.084;5.816;2023-02-28T00:54:40;3.62;64.96
66019;HTU21D;52787;51.084;5.816;2023-02-28T00:57:06;3.64;64.85
66019;HTU21D;52787;51.084;5.816;2023-02-28T00:59:31;3.64;64.74
66019;HTU21D;52787;51.084;5.816;2023-02-28T01:01:57;3.67;64.61
66019;HTU21D;52787;51.084;5.816;2023-02-28T01:04:23;3.62;64.69
66019;HTU21D;52787;51.084;5.816;2023-02-28T01:06:49;3.61;64.79
66019;HTU21D;52787;51.084;5.816;2023-02-28T01:09:14;3.56;64.85
66019;HTU21D;52787;51.084;5.816;2023-02-28T01:11:41;3.53;64.91
66019;HTU21D;52787;51.084;5.816;2023-02-28T01:14:13;3.53;64.79
66019;HTU21D;52787;51.084;5.816;2023-02-28T01:16:39;3.53;64.74
66019;HTU21D;52787;51.084;5.816;2023-02-28T01:19:05;3.49;64.82
66019;HTU21D;52787;51.084;5.816;2023-02-28T01:21:31;3.50;64.62
66019;HTU21D;52787;51.084;5.816;2023-02-28T01:23:58;3.53;64.47
66019;HTU21D;52787;51.084;5.816;2023-02-28T01:26:24;3.53;64.30
66019;HTU21D;52787;51.084;5.816;2023-02-28T01:28:51;3.54;64.14
66019;HTU21D;52787;51.084;5.816;2023-02-28T01:31:19;3.50;64.17
66019;HTU21D;52787;51.084;5.816;2023-02-28T01:33:46;3.48;64.34
66019;HTU21D;52787;51.084;5.816;2023-02-28T01:36:18;3.45;64.38
66019;HTU21D;52787;51.084;5.816;2023-02-28T01:38:49;3.35;64.77
66019;HTU21D;52787;51.084;5.816;2023-02-28T01:46:50;3.21;65.33
66019;HTU21D;52787;51.084;5.816;2023-02-28T01:49:18;3.23;65.29
66019;HTU21D;52787;51.084;5.816;2023-02-28T01:51:48;3.23;65.29
66019;HTU21D;52787;51.084;5.816;2023-02-28T01:54:27;3.20;65.41
66019;HTU21D;52787;51.084;5.816;2023-02-28T01:57:03;3.16;65.58
66019;HTU21D;52787;51.084;5.816;2023-02-28T01:59:57;3.17;65.50
66019;HTU21D;52787;51.084;5.816;2023-02-28T02:02:28;3.13;65.69
66019;HTU21D;52787;51.084;5.816;2023-02-28T02:05:03;3.12;65.88
66019;HTU21D;52787;51.084;5.816;2023-02-28T02:07:41;3.15;65.82
66019;HTU21D;52787;51.084;5.816;2023-02-28T02:10:18;3.16;65.69
66019;HTU21D;52787;51.084;5.816;2023-02-28T02:18:56;3.18;65.71
66019;HTU21D;52787;51.084;5.816;2023-02-28T02:37:22;2.99;66.67
66019;HTU21D;52787;51.084;5.816;2023-02-28T02:42:45;2.94;66.92
66019;HTU21D;52787;51.084;5.816;2023-02-28T02:45:21;2.88;67.23
66019;HTU21D;52787;51.084;5.816;2023-02-28T02:47:54;2.86;67.58
66019;HTU21D;52787;51.084;5.816;2023-02-28T02:50:31;2.81;67.82
66019;HTU21D;52787;51.084;5.816;2023-02-28T02:53:07;2.78;68.10
66019;HTU21D;52787;51.084;5.816;2023-02-28T02:55:40;2.76;68.22
66019;HTU21D;52787;51.084;5.816;2023-02-28T02:58:21;2.74;68.42
66019;HTU21D;52787;51.084;5.816;2023-02-28T03:00:57;2.76;68.43
66019;HTU21D;52787;51.084;5.816;2023-02-28T03:03:27;2.76;68.43
66019;HTU21D;52787;51.084;5.816;2023-02-28T03:05:58;2.75;68.42
66019;HTU21D;52787;51.084;5.816;2023-02-28T03:08:26;2.74;68.47
66019;HTU21D;52787;51.084;5.816;2023-02-28T03:11:01;2.74;68.57
66019;HTU21D;52787;51.084;5.816;2023-02-28T03:16:23;2.71;68.66
66019;HTU21D;52787;51.084;5.816;2023-02-28T03:25:20;2.80;67.94
66019;HTU21D;52787;51.084;5.816;2023-02-28T03:30:54;2.74;67.99
66019;HTU21D;52787;51.084;5.816;2023-02-28T03:33:32;2.76;67.88
66019;HTU21D;52787;51.084;5.816;2023-02-28T03:36:08;2.73;67.94
66019;HTU21D;52787;51.084;5.816;2023-02-28T03:38:54;2.73;68.26
66019;HTU21D;52787;51.084;5.816;2023-02-28T03:41:27;2.76;68.19
66019;HTU21D;52787;51.084;5.816;2023-02-28T03:44:10;2.76;68.33
66019;HTU21D;52787;51.084;5.816;2023-02-28T03:46:54;2.80;68.40
66019;HTU21D;52787;51.084;5.816;2023-02-28T03:49:32;2.82;68.45
66019;HTU21D;52787;51.084;5.816;2023-02-28T03:52:05;2.87;68.23
66019;HTU21D;52787;51.084;5.816;2023-02-28T03:54:39;2.89;68.04
66019;HTU21D;52787;51.084;5.816;2023-02-28T03:57:24;2.90;67.88
66019;HTU21D;52787;51.084;5.816;2023-02-28T03:59:59;2.81;68.03
66019;HTU21D;52787;51.084;5.816;2023-02-28T04:02:31;2.69;68.49
66019;HTU21D;52787;51.084;5.816;2023-02-28T04:04:59;2.70;68.49
66019;HTU21D;52787;51.084;5.816;2023-02-28T04:07:29;2.73;67.97
66019;HTU21D;52787;51.084;5.816;2023-02-28T04:09:56;2.72;68.00
66019;HTU21D;52787;51.084;5.816;2023-02-28T04:12:22;2.65;68.22
66019;HTU21D;52787;51.084;5.816;2023-02-28T04:14:49;2.54;68.49
66019;HTU21D;52787;51.084;5.816;2023-02-28T04:17:16;2.47;68.74
66019;HTU21D;52787;51.084;5.816;2023-02-28T04:19:42;2.43;68.93
66019;HTU21D;52787;51.084;5.816;2023-02-28T04:22:09;2.43;69.01
66019;HTU21D;52787;51.084;5.816;2023-02-28T04:24:35;2.42;69.07
66019;HTU21D;52787;51.084;5.816;2023-02-28T04:27:02;2.45;69.04
66019;HTU21D;52787;51.084;5.816;2023-02-28T04:29:30;2.46;69.05
66019;HTU21D;52787;51.084;5.816;2023-02-28T04:32:01;2.45;69.07
66019;HTU21D;52787;51.084;5.816;2023-02-28T04:34:30;2.45;69.11
66019;HTU21D;52787;51.084;5.816;2023-02-28T04:36:57;2.53;68.86
66019;HTU21D;52787;51.084;5.816;2023-02-28T04:39:24;2.51;68.66
66019;HTU21D;52787;51.084;5.816;2023-02-28T04:41:50;2.44;68.67
66019;HTU21D;52787;51.084;5.816;2023-02-28T04:44:16;2.38;68.82
66019;HTU21D;52787;51.084;5.816;2023-02-28T04:46:43;2.36;68.88
66019;HTU21D;52787;51.084;5.816;2023-02-28T04:49:12;2.36;68.80
66019;HTU21D;52787;51.084;5.816;2023-02-28T04:51:39;2.35;68.80
66019;HTU21D;52787;51.084;5.816;2023-02-28T04:54:06;2.34;68.91
66019;HTU21D;52787;51.084;5.816;2023-02-28T04:56:32;2.35;69.01
66019;HTU21D;52787;51.084;5.816;2023-02-28T04:58:58;2.37;68.91
66019;HTU21D;52787;51.084;5.816;2023-02-28T05:01:29;2.39;68.82
66019;HTU21D;52787;51.084;5.816;2023-02-28T05:03:58;2.38;68.77
66019;HTU21D;52787;51.084;5.816;2023-02-28T05:06:29;2.31;69.05
66019;HTU21D;52787;51.084;5.816;2023-02-28T05:08:56;2.28;69.50
66019;HTU21D;52787;51.084;5.816;2023-02-28T05:11:29;2.24;69.91
66019;HTU21D;52787;51.084;5.816;2023-02-28T05:14:03;2.22;70.24
66019;HTU21D;52787;51.084;5.816;2023-02-28T05:16:32;2.19;70.57
66019;HTU21D;52787;51.084;5.816;2023-02-28T05:18:58;2.16;70.98
66019;HTU21D;52787;51.084;5.816;2023-02-28T05:21:30;2.14;71.19
66019;HTU21D;52787;51.084;5.816;2023-02-28T05:24:00;2.12;71.45
66019;HTU21D;52787;51.084;5.816;2023-02-28T05:26:28;2.14;71.16
66019;HTU21D;52787;51.084;5.816;2023-02-28T05:28:55;2.12;71.25
66019;HTU21D;52787;51.084;5.816;2023-02-28T05:31:21;2.08;71.50
66019;HTU21D;52787;51.084;5.816;2023-02-28T05:33:47;2.05;71.45
66019;HTU21D;52787;51.084;5.816;2023-02-28T05:36:13;2.03;71.13
66019;HTU21D;52787;51.084;5.816;2023-02-28T05:38:39;2.06;70.84
66019;HTU21D;52787;51.084;5.816;2023-02-28T05:41:09;2.10;70.13
66019;HTU21D;52787;51.084;5.816;2023-02-28T05:43:37;2.12;69.66
66019;HTU21D;52787;51.084;5.816;2023-02-28T05:46:08;2.17;69.14
66019;HTU21D;52787;51.084;5.816;2023-02-28T05:48:37;2.23;68.68
66019;HTU21D;52787;51.084;5.816;2023-02-28T05:51:05;2.23;68.11
66019;HTU21D;52787;51.084;5.816;2023-02-28T05:53:32;2.21;67.84
66019;HTU21D;52787;51.084;5.816;2023-02-28T05:55:58;2.15;67.97
66019;HTU21D;52787;51.084;5.816;2023-02-28T05:58:24;2.13;67.71
66019;HTU21D;52787;51.084;5.816;2023-02-28T06:01:00;2.08;67.60
66019;HTU21D;52787;51.084;5.816;2023-02-28T06:03:43;2.02;67.43
66019;HTU21D;52787;51.084;5.816;2023-02-28T06:06:09;1.98;67.32
66019;HTU21D;52787;51.084;5.816;2023-02-28T06:08:35;1.95;67.38
66019;HTU21D;52787;51.084;5.816;2023-02-28T06:11:03;1.94;67.43
66019;HTU21D;52787;51.084;5.816;2023-02-28T06:13:29;1.91;67.12
66019;HTU21D;52787;51.084;5.816;2023-02-28T06:15:55;1.92;67.04
66019;HTU21D;52787;51.084;5.816;2023-02-28T06:18:21;1.91;67.05
66019;HTU21D;52787;51.084;5.816;2023-02-28T06:20:55;1.84;67.17
66019;HTU21D;52787;51.084;5.816;2023-02-28T06:23:21;1.80;67.25
66019;HTU21D;52787;51.084;5.816;2023-02-28T06:25:47;1.77;67.20
66019;HTU21D;52787;51.084;5.816;2023-02-28T06:28:14;1.79;66.97
66019;HTU21D;52787;51.084;5.816;2023-02-28T06:30:40;1.81;66.80
66019;HTU21D;52787;51.084;5.816;2023-02-28T06:33:06;1.82;67.04
66019;HTU21D;52787;51.084;5.816;2023-02-28T06:35:32;1.91;66.78
66019;HTU21D;52787;51.084;5.816;2023-02-28T06:37:58;1.97;66.46
66019;HTU21D;52787;51.084;5.816;2023-02-28T06:40:23;2.02;65.88
66019;HTU21D;52787;51.084;5.816;2023-02-28T06:42:49;2.06;65.62
66019;HTU21D;52787;51.084;5.816;2023-02-28T06:45:15;2.10;65.50
66019;HTU21D;52787;51.084;5.816;2023-02-28T06:47:41;2.09;65.48
66019;HTU21D;52787;51.084;5.816;2023-02-28T06:50:10;2.10;65.45
66019;HTU21D;52787;51.084;5.816;2023-02-28T06:52:37;2.09;65.56
66019;HTU21D;52787;51.084;5.816;2023-02-28T06:55:07;1.99;65.95
66019;HTU21D;52787;51.084;5.816;2023-02-28T06:57:35;1.93;66.49
66019;HTU21D;52787;51.084;5.816;2023-02-28T07:00:04;1.97;66.46
66019;HTU21D;52787;51.084;5.816;2023-02-28T07:02:33;2.02;66.24
66019;HTU21D;52787;51.084;5.816;2023-02-28T07:12:36;2.09;66.59
66019;HTU21D;52787;51.084;5.816;2023-02-28T07:15:03;2.10;66.86
66019;HTU21D;52787;51.084;5.816;2023-02-28T07:17:30;2.10;66.94
66019;HTU21D;52787;51.084;5.816;2023-02-28T07:19:56;2.11;67.01
66019;HTU21D;52787;51.084;5.816;2023-02-28T07:22:22;2.13;67.08
66019;HTU21D;52787;51.084;5.816;2023-02-28T07:24:47;2.21;66.85
66019;HTU21D;52787;51.084;5.816;2023-02-28T07:27:14;2.26;66.72
66019;HTU21D;52787;51.084;5.816;2023-02-28T07:29:49;2.31;66.65
66019;HTU21D;52787;51.084;5.816;2023-02-28T07:32:15;2.34;66.57
66019;HTU21D;52787;51.084;5.816;2023-02-28T07:34:41;2.30;66.82
66019;HTU21D;52787;51.084;5.816;2023-02-28T07:37:07;2.31;66.75
66019;HTU21D;52787;51.084;5.816;2023-02-28T07:39:33;2.36;66.64
66019;HTU21D;52787;51.084;5.816;2023-02-28T07:41:58;2.40;66.61
66019;HTU21D;52787;51.084;5.816;2023-02-28T07:44:25;2.46;66.52
66019;HTU21D;52787;51.084;5.816;2023-02-28T07:46:51;2.53;66.08
66019;HTU21D;52787;51.084;5.816;2023-02-28T07:49:18;2.59;65.56
66019;HTU21D;52787;51.084;5.816;2023-02-28T07:51:44;2.59;65.52
66019;HTU21D;52787;51.084;5.816;2023-02-28T07:54:10;2.56;65.53
66019;HTU21D;52787;51.084;5.816;2023-02-28T07:56:35;2.56;65.45
66019;HTU21D;52787;51.084;5.816;2023-02-28T07:59:01;2.60;65.43
66019;HTU21D;52787;51.084;5.816;2023-02-28T08:01:27;2.65;64.82
66019;HTU21D;52787;51.084;5.816;2023-02-28T08:03:53;2.72;64.75
66019;HTU21D;52787;51.084;5.816;2023-02-28T08:06:24;2.78;64.56
66019;HTU21D;52787;51.084;5.816;2023-02-28T08:08:53;2.83;63.83
66019;HTU21D;52787;51.084;5.816;2023-02-28T08:11:19;2.82;63.77
66019;HTU21D;52787;51.084;5.816;2023-02-28T08:13:45;2.85;63.13
66019;HTU21D;52787;51.084;5.816;2023-02-28T08:16:13;2.84;62.74
66019;HTU21D;52787;51.084;5.816;2023-02-28T08:18:43;2.87;62.53
66019;HTU21D;52787;51.084;5.816;2023-02-28T08:21:10;2.93;62.40
66019;HTU21D;52787;51.084;5.816;2023-02-28T08:23:35;2.95;61.90
66019;HTU21D;52787;51.084;5.816;2023-02-28T08:26:02;2.93;61.91
66019;HTU21D;52787;51.084;5.816;2023-02-28T08:28:28;2.96;61.91
66019;HTU21D;52787;51.084;5.816;2023-02-28T08:30:54;3.02;61.34
66019;HTU21D;52787;51.084;5.816;2023-02-28T08:33:21;3.05;61.18
66019;HTU21D;52787;51.084;5.816;2023-02-28T08:35:48;3.13;60.90
66019;HTU21D;52787;51.084;5.816;2023-02-28T08:38:13;3.19;60.70
66019;HTU21D;52787;51.084;5.816;2023-02-28T08:40:39;3.26;60.63
66019;HTU21D;52787;51.084;5.816;2023-02-28T08:43:05;3.31;60.73
66019;HTU21D;52787;51.084;5.816;2023-02-28T08:45:31;3.42;60.67
66019;HTU21D;52787;51.084;5.816;2023-02-28T08:47:57;3.52;60.16
66019;HTU21D;52787;51.084;5.816;2023-02-28T08:50:23;3.60;59.75
66019;HTU21D;52787;51.084;5.816;2023-02-28T08:52:48;3.67;59.40
66019;HTU21D;52787;51.084;5.816;2023-02-28T08:55:14;3.74;58.28
66019;HTU21D;52787;51.084;5.816;2023-02-28T08:57:40;3.77;57.50
66019;HTU21D;52787;51.084;5.816;2023-02-28T09:00:06;3.79;56.97
66019;HTU21D;52787;51.084;5.816;2023-02-28T09:02:33;3.85;56.66
66019;HTU21D;52787;51.084;5.816;2023-02-28T09:05:00;3.92;56.00
66019;HTU21D;52787;51.084;5.816;2023-02-28T09:07:25;4.00;55.50
66019;HTU21D;52787;51.084;5.816;2023-02-28T09:09:51;4.04;55.30
66019;HTU21D;52787;51.084;5.816;2023-02-28T09:12:25;4.13;55.04
66019;HTU21D;52787;51.084;5.816;2023-02-28T09:14:51;4.21;54.71
66019;HTU21D;52787;51.084;5.816;2023-02-28T09:17:17;4.32;53.64
66019;HTU21D;52787;51.084;5.816;2023-02-28T09:19:44;4.43;53.46
66019;HTU21D;52787;51.084;5.816;2023-02-28T09:22:10;4.51;52.96
66019;HTU21D;52787;51.084;5.816;2023-02-28T09:24:37;4.61;52.11
66019;HTU21D;52787;51.084;5.816;2023-02-28T09:27:04;4.72;51.34
66019;HTU21D;52787;51.084;5.816;2023-02-28T09:29:31;4.83;51.13
66019;HTU21D;52787;51.084;5.816;2023-02-28T09:31:58;4.95;50.79
66019;HTU21D;52787;51.084;5.816;2023-02-28T09:34:25;5.09;50.56
66019;HTU21D;52787;51.084;5.816;2023-02-28T09:36:51;5.20;50.74
66019;HTU21D;52787;51.084;5.816;2023-02-28T09:39:21;5.31;49.77
66019;HTU21D;52787;51.084;5.816;2023-02-28T09:41:51;5.41;48.28
66019;HTU21D;52787;51.084;5.816;2023-02-28T09:44:42;5.55;48.07
66019;HTU21D;52787;51.084;5.816;2023-02-28T09:52:53;5.87;46.54
66019;HTU21D;52787;51.084;5.816;2023-02-28T09:55:22;6.07;46.31
66019;HTU21D;52787;51.084;5.816;2023-02-28T09:58:05;6.22;43.45
66019;HTU21D;52787;51.084;5.816;2023-02-28T10:00:42;6.28;43.91
66019;HTU21D;52787;51.084;5.816;2023-02-28T10:03:40;6.38;42.84
66019;HTU21D;52787;51.084;5.816;2023-02-28T10:06:17;6.57;42.33
66019;HTU21D;52787;51.084;5.816;2023-02-28T10:11:20;9.42;36.43
66019;HTU21D;52787;51.084;5.816;2023-02-28T10:19:52;12.74;28.61
66019;HTU21D;52787;51.084;5.816;2023-02-28T10:22:26;13.01;27.28
66019;HTU21D;52787;51.084;5.816;2023-02-28T10:25:21;13.52;26.17
66019;HTU21D;52787;51.084;5.816;2023-02-28T10:27:54;13.83;25.83
66019;HTU21D;52787;51.084;5.816;2023-02-28T10:30:24;14.22;25.25
66019;HTU21D;52787;51.084;5.816;2023-02-28T10:32:51;14.14;24.49
66019;HTU21D;52787;51.084;5.816;2023-02-28T10:35:23;13.96;25.31
66019;HTU21D;52787;51.084;5.816;2023-02-28T10:37:54;14.23;25.30
66019;HTU21D;52787;51.084;5.816;2023-02-28T10:40:26;14.64;24.41
66019;HTU21D;52787;51.084;5.816;2023-02-28T10:43:04;14.81;23.98
66019;HTU21D;52787;51.084;5.816;2023-02-28T10:49:11;14.71;24.08
66019;HTU21D;52787;51.084;5.816;2023-02-28T10:51:37;13.56;25.93
66019;HTU21D;52787;51.084;5.816;2023-02-28T10:54:05;12.47;27.59
66019;HTU21D;52787;51.084;5.816;2023-02-28T10:56:31;11.53;28.84
66019;HTU21D;52787;51.084;5.816;2023-02-28T10:59:27;10.83;30.00
66019;HTU21D;52787;51.084;5.816;2023-02-28T11:01:55;10.20;30.80
66019;HTU21D;52787;51.084;5.816;2023-02-28T11:09:46;9.92;32.95
66019;HTU21D;52787;51.084;5.816;2023-02-28T11:20:39;14.41;23.62
66019;HTU21D;52787;51.084;5.816;2023-02-28T11:23:12;14.64;23.59
66019;HTU21D;52787;51.084;5.816;2023-02-28T11:25:39;15.02;23.71
66019;HTU21D;52787;51.084;5.816;2023-02-28T11:28:30;15.00;23.50
66019;HTU21D;52787;51.084;5.816;2023-02-28T11:31:06;15.25;22.98
66019;HTU21D;52787;51.084;5.816;2023-02-28T11:33:53;15.15;22.75
66019;HTU21D;52787;51.084;5.816;2023-02-28T11:38:51;13.34;25.87
66019;HTU21D;52787;51.084;5.816;2023-02-28T11:48:02;13.91;25.62
66019;HTU21D;52787;51.084;5.816;2023-02-28T11:53:27;16.34;22.05
66019;HTU21D;52787;51.084;5.816;2023-02-28T11:56:32;17.26;20.76
66019;HTU21D;52787;51.084;5.816;2023-02-28T11:59:19;17.96;19.52
66019;HTU21D;52787;51.084;5.816;2023-02-28T12:04:52;18.80;18.75
66019;HTU21D;52787;51.084;5.816;2023-02-28T12:11:53;20.02;17.48
66019;HTU21D;52787;51.084;5.816;2023-02-28T12:20:02;20.44;16.42
66019;HTU21D;52787;51.084;5.816;2023-02-28T12:27:43;19.54;17.84
66019;HTU21D;52787;51.084;5.816;2023-02-28T12:33:09;17.64;20.00
66019;HTU21D;52787;51.084;5.816;2023-02-28T12:35:52;16.57;21.13
66019;HTU21D;52787;51.084;5.816;2023-02-28T12:38:47;15.39;22.93
66019;HTU21D;52787;51.084;5.816;2023-02-28T12:44:32;14.87;25.48
66019;HTU21D;52787;51.084;5.816;2023-02-28T12:47:05;15.03;25.72
66019;HTU21D;52787;51.084;5.816;2023-02-28T12:57:49;13.45;27.37
66019;HTU21D;52787;51.084;5.816;2023-02-28T13:00:22;13.07;28.76
66019;HTU21D;52787;51.084;5.816;2023-02-28T13:06:44;15.42;24.65
66019;HTU21D;52787;51.084;5.816;2023-02-28T13:09:20;15.00;24.65
66019;HTU21D;52787;51.084;5.816;2023-02-28T13:11:49;15.70;25.06
66019;HTU21D;52787;51.084;5.816;2023-02-28T13:17:16;18.23;20.99
66019;HTU21D;52787;51.084;5.816;2023-02-28T13:25:00;20.13;18.16
66019;HTU21D;52787;51.084;5.816;2023-02-28T13:51:53;16.74;21.64
66019;HTU21D;52787;51.084;5.816;2023-02-28T14:01:04;14.58;25.66
66019;HTU21D;52787;51.084;5.816;2023-02-28T14:03:53;14.19;26.53
66019;HTU21D;52787;51.084;5.816;2023-02-28T14:06:46;13.78;26.55
66019;HTU21D;52787;51.084;5.816;2023-02-28T14:11:56;13.56;28.79
66019;HTU21D;52787;51.084;5.816;2023-02-28T14:17:02;15.85;25.46
66019;HTU21D;52787;51.084;5.816;2023-02-28T14:19:32;17.82;21.90
66019;HTU21D;52787;51.084;5.816;2023-02-28T14:24:54;22.48;15.74
66019;HTU21D;52787;51.084;5.816;2023-02-28T14:36:41;26.71;11.07
66019;HTU21D;52787;51.084;5.816;2023-02-28T14:39:18;27.58;10.38
66019;HTU21D;52787;51.084;5.816;2023-02-28T14:41:46;28.35;9.23
66019;HTU21D;52787;51.084;5.816;2023-02-28T14:44:22;28.34;8.95
66019;HTU21D;52787;51.084;5.816;2023-02-28T14:46:53;28.48;8.81
66019;HTU21D;52787;51.084;5.816;2023-02-28T14:49:44;28.60;8.58
66019;HTU21D;52787;51.084;5.816;2023-02-28T14:52:19;28.43;8.60
66019;HTU21D;52787;51.084;5.816;2023-02-28T14:55:00;28.52;8.65
66019;HTU21D;52787;51.084;5.816;2023-02-28T14:57:40;28.32;8.40
66019;HTU21D;52787;51.084;5.816;2023-02-28T15:00:40;28.10;8.59
66019;HTU21D;52787;51.084;5.816;2023-02-28T15:03:34;27.87;8.76
66019;HTU21D;52787;51.084;5.816;2023-02-28T15:06:12;27.71;8.81
66019;HTU21D;52787;51.084;5.816;2023-02-28T15:08:40;27.35;9.23
66019;HTU21D;52787;51.084;5.816;2023-02-28T15:11:24;26.94;9.49
66019;HTU21D;52787;51.084;5.816;2023-02-28T15:13:54;26.86;9.52
66019;HTU21D;52787;51.084;5.816;2023-02-28T15:16:22;26.65;9.20
66019;HTU21D;52787;51.084;5.816;2023-02-28T15:19:05;26.38;10.04
66019;HTU21D;52787;51.084;5.816;2023-02-28T15:21:48;26.64;10.01
66019;HTU21D;52787;51.084;5.816;2023-02-28T15:24:30;26.82;9.88
66019;HTU21D;52787;51.084;5.816;2023-02-28T15:27:20;26.97;9.62
66019;HTU21D;52787;51.084;5.816;2023-02-28T15:29:56;26.63;9.66
66019;HTU21D;52787;51.084;5.816;2023-02-28T15:34:57;25.82;9.90
66019;HTU21D;52787;51.084;5.816;2023-02-28T15:37:39;24.00;10.82
66019;HTU21D;52787;51.084;5.816;2023-02-28T15:43:17;18.72;17.08
66019;HTU21D;52787;51.084;5.816;2023-02-28T15:46:07;16.94;19.84
66019;HTU21D;52787;51.084;5.816;2023-02-28T15:51:33;14.22;23.94
66019;HTU21D;52787;51.084;5.816;2023-02-28T15:54:05;13.41;26.00
66019;HTU21D;52787;51.084;5.816;2023-02-28T15:56:47;12.92;27.49
66019;HTU21D;52787;51.084;5.816;2023-02-28T15:59:21;12.51;28.28
66019;HTU21D;52787;51.084;5.816;2023-02-28T16:02:19;12.20;29.23
66019;HTU21D;52787;51.084;5.816;2023-02-28T16:07:39;11.58;30.00
66019;HTU21D;52787;51.084;5.816;2023-02-28T16:10:08;11.40;30.77
66019;HTU21D;52787;51.084;5.816;2023-02-28T16:12:38;11.19;31.03
66019;HTU21D;52787;51.084;5.816;2023-02-28T16:15:18;10.97;31.61
66019;HTU21D;52787;51.084;5.816;2023-02-28T16:17:47;10.79;32.24
66019;HTU21D;52787;51.084;5.816;2023-02-28T16:20:15;10.67;32.68
66019;HTU21D;52787;51.084;5.816;2023-02-28T16:22:42;10.57;33.11
66019;HTU21D;52787;51.084;5.816;2023-02-28T16:25:18;10.49;33.53
66019;HTU21D;52787;51.084;5.816;2023-02-28T16:27:49;10.44;33.83
66019;HTU21D;52787;51.084;5.816;2023-02-28T16:30:27;10.30;34.12
66019;HTU21D;52787;51.084;5.816;2023-02-28T16:32:57;10.25;34.41
66019;HTU21D;52787;51.084;5.816;2023-02-28T16:35:23;10.25;34.89
66019;HTU21D;52787;51.084;5.816;2023-02-28T16:37:50;10.13;34.26
66019;HTU21D;52787;51.084;5.816;2023-02-28T16:40:19;9.98;34.70
66019;HTU21D;52787;51.084;5.816;2023-02-28T16:42:52;9.82;34.93
66019;HTU21D;52787;51.084;5.816;2023-02-28T16:45:25;9.71;35.49
66019;HTU21D;52787;51.084;5.816;2023-02-28T16:47:53;9.66;36.23
66019;HTU21D;52787;51.084;5.816;2023-02-28T16:50:28;9.60;36.50
66019;HTU21D;52787;51.084;5.816;2023-02-28T16:52:57;9.52;36.72
66019;HTU21D;52787;51.084;5.816;2023-02-28T16:55:25;9.41;37.05
66019;HTU21D;52787;51.084;5.816;2023-02-28T16:57:54;9.30;37.13
66019;HTU21D;52787;51.084;5.816;2023-02-28T17:00:22;9.21;37.61
66019;HTU21D;52787;51.084;5.816;2023-02-28T17:02:49;9.18;37.66
66019;HTU21D;52787;51.084;5.816;2023-02-28T17:05:15;9.18;37.79
66019;HTU21D;52787;51.084;5.816;2023-02-28T17:07:42;9.14;37.77
66019;HTU21D;52787;51.084;5.816;2023-02-28T17:10:23;9.05;38.19
66019;HTU21D;52787;51.084;5.816;2023-02-28T17:12:50;9.01;38.33
66019;HTU21D;52787;51.084;5.816;2023-02-28T17:15:18;8.96;38.21
66019;HTU21D;52787;51.084;5.816;2023-02-28T17:17:46;8.90;38.29
66019;HTU21D;52787;51.084;5.816;2023-02-28T17:20:15;8.86;38.63
66019;HTU21D;52787;51.084;5.816;2023-02-28T17:22:42;8.80;38.75
66019;HTU21D;52787;51.084;5.816;2023-02-28T17:25:09;8.74;39.00
66019;HTU21D;52787;51.084;5.816;2023-02-28T17:27:37;8.61;39.52
66019;HTU21D;52787;51.084;5.816;2023-02-28T17:30:14;8.56;40.08
66019;HTU21D;52787;51.084;5.816;2023-02-28T17:32:42;8.49;40.16
66019;HTU21D;52787;51.084;5.816;2023-02-28T17:35:08;8.46;40.65
66019;HTU21D;52787;51.084;5.816;2023-02-28T17:37:34;8.43;40.78
66019;HTU21D;52787;51.084;5.816;2023-02-28T17:40:00;8.37;40.71
66019;HTU21D;52787;51.084;5.816;2023-02-28T17:42:26;8.29;41.00
66019;HTU21D;52787;51.084;5.816;2023-02-28T17:44:51;8.23;41.18
66019;HTU21D;52787;51.084;5.816;2023-02-28T17:47:17;8.15;41.36
66019;HTU21D;52787;51.084;5.816;2023-02-28T17:49:43;8.03;41.68
66019;HTU21D;52787;51.084;5.816;2023-02-28T17:52:09;7.97;42.02
66019;HTU21D;52787;51.084;5.816;2023-02-28T17:54:34;7.91;42.45
66019;HTU21D;52787;51.084;5.816;2023-02-28T17:57:00;7.88;42.65
66019;HTU21D;52787;51.084;5.816;2023-02-28T17:59:26;7.86;42.83
66019;HTU21D;52787;51.084;5.816;2023-02-28T18:02:02;7.83;42.91
66019;HTU21D;52787;51.084;5.816;2023-02-28T18:04:29;7.79;43.05
66019;HTU21D;52787;51.084;5.816;2023-02-28T18:06:55;7.76;43.25
66019;HTU21D;52787;51.084;5.816;2023-02-28T18:09:26;7.72;43.45
66019;HTU21D;52787;51.084;5.816;2023-02-28T18:11:54;7.71;43.69
66019;HTU21D;52787;51.084;5.816;2023-02-28T18:14:23;7.69;43.87
66019;HTU21D;52787;51.084;5.816;2023-02-28T18:16:51;7.63;44.22
66019;HTU21D;52787;51.084;5.816;2023-02-28T18:19:18;7.57;44.40
66019;HTU21D;52787;51.084;5.816;2023-02-28T18:21:50;7.52;44.66
66019;HTU21D;52787;51.084;5.816;2023-02-28T18:24:18;7.45;44.87
66019;HTU21D;52787;51.084;5.816;2023-02-28T18:26:45;7.38;45.09
66019;HTU21D;52787;51.084;5.816;2023-02-28T18:29:21;7.32;45.42
66019;HTU21D;52787;51.084;5.816;2023-02-28T18:31:48;7.33;45.57
66019;HTU21D;52787;51.084;5.816;2023-02-28T18:34:15;7.26;45.69
66019;HTU21D;52787;51.084;5.816;2023-02-28T18:36:41;7.16;45.96
66019;HTU21D;52787;51.084;5.816;2023-02-28T18:39:09;7.13;46.20
66019;HTU21D;52787;51.084;5.816;2023-02-28T18:41:36;7.17;46.30
66019;HTU21D;52787;51.084;5.816;2023-02-28T18:44:03;7.18;46.36
66019;HTU21D;52787;51.084;5.816;2023-02-28T18:46:29;7.14;46.28
66019;HTU21D;52787;51.084;5.816;2023-02-28T18:48:54;7.07;46.47
66019;HTU21D;52787;51.084;5.816;2023-02-28T18:51:23;7.00;46.80
66019;HTU21D;52787;51.084;5.816;2023-02-28T18:53:54;6.97;46.97
66019;HTU21D;52787;51.084;5.816;2023-02-28T18:56:23;6.99;47.16
66019;HTU21D;52787;51.084;5.816;2023-02-28T18:58:49;7.03;47.09
66019;HTU21D;52787;51.084;5.816;2023-02-28T19:01:25;7.05;46.96
66019;HTU21D;52787;51.084;5.816;2023-02-28T19:03:54;7.02;47.02
66019;HTU21D;52787;51.084;5.816;2023-02-28T19:06:21;6.96;47.19